Terminal Aerodrome Forecast
Issued by NWS

Home | Current Version | Previous Version | Text Only | Print | Product List | Glossary On
Versions: 1 2 3 4 5 6 7 8 9 10 11 12 13 14 15 16 17 18 19 20 21 22 23 24 25 26 27
160
FTUS42 KGSP 081736
TAFAND
TAF
KAND 081736Z 0818/0918 30009KT P6SM BKN200
     FM090200 30005KT P6SM SCT200
     FM091500 29006KT P6SM FEW250=

USA.gov is the U.S. government's official web portal to all federal, state and local government web resources and services.